TimeNZDT,TemperatureF,Dew PointF,Humidity,Sea Level PressureIn,VisibilityMPH,Wind Direction,Wind SpeedMPH,Gust SpeedMPH,PrecipitationIn,Events,Conditions,WindDirDegrees,DateUTC
12:00 AM,57.2,48.2,72,29.21,-9999.0,East,9.2,-,N/A,,Clear,90,2012-10-17 11:00:00
1:00 AM,53.6,44.6,72,29.18,-9999.0,West,3.5,-,N/A,,Clear,270,2012-10-17 12:00:00
2:00 AM,59.0,44.6,59,29.15,-9999.0,NW,17.3,-,N/A,,Clear,320,2012-10-17 13:00:00
3:00 AM,59.0,35.6,42,29.12,-9999.0,WNW,23.0,38.0,N/A,,Clear,300,2012-10-17 14:00:00
4:00 AM,57.2,33.8,41,29.12,-9999.0,NW,19.6,31.1,N/A,,Clear,320,2012-10-17 15:00:00
5:00 AM,55.4,35.6,47,29.09,-9999.0,NW,23.0,35.7,N/A,,Clear,310,2012-10-17 16:00:00
6:00 AM,53.6,37.4,54,29.12,-9999.0,WNW,13.8,-,N/A,,Clear,290,2012-10-17 17:00:00
7:00 AM,53.6,35.6,51,29.12,-9999.0,WNW,12.7,-,N/A,,Clear,300,2012-10-17 18:00:00
8:00 AM,53.6,33.8,47,29.12,-9999.0,WNW,16.1,-,N/A,,Clear,290,2012-10-17 19:00:00
9:00 AM,57.2,35.6,44,29.09,-9999.0,WNW,17.3,-,N/A,,Clear,300,2012-10-17 20:00:00
10:00 AM,59.0,32.0,36,29.09,-9999.0,WNW,16.1,-,N/A,,Clear,290,2012-10-17 21:00:00
11:00 AM,57.2,33.8,41,29.12,-9999.0,WNW,17.3,-,N/A,,Clear,300,2012-10-17 22:00:00
12:00 PM,59.0,35.6,42,29.09,6.2,WNW,20.7,-,N/A,,Overcast,300,2012-10-17 23:00:00
1:00 PM,57.2,37.4,48,29.09,-9999.0,West,2.3,-,N/A,,Clear,260,2012-10-18 00:00:00
2:00 PM,57.2,39.2,51,29.12,6.2,South,6.9,-,N/A,,Mostly Cloudy,190,2012-10-18 01:00:00
3:00 PM,57.2,41.0,55,29.12,6.2,SW,10.4,-,N/A,,Mostly Cloudy,220,2012-10-18 02:00:00
4:00 PM,59.0,41.0,51,29.15,6.2,West,10.4,-,N/A,,Partly Cloudy,270,2012-10-18 03:00:00
5:00 PM,60.8,39.2,45,29.15,6.2,WSW,11.5,-,N/A,,Partly Cloudy,250,2012-10-18 04:00:00
6:00 PM,53.6,46.4,77,29.21,6.2,West,8.1,-,N/A,,Mostly Cloudy,270,2012-10-18 05:00:00
7:00 PM,53.6,42.8,67,29.24,6.2,SSW,15.0,-,N/A,,Mostly Cloudy,200,2012-10-18 06:00:00
8:00 PM,50.0,44.6,82,29.30,6.2,SSW,15.0,-,N/A,,Mostly Cloudy,200,2012-10-18 07:00:00
9:00 PM,50.0,44.6,82,29.36,6.2,SW,8.1,-,N/A,Rain,Light Rain Showers,230,2012-10-18 08:00:00
10:00 PM,48.2,44.6,87,29.36,6.2,West,5.8,-,N/A,,Mostly Cloudy,280,2012-10-18 09:00:00
11:00 PM,50.0,44.6,82,29.39,6.2,WSW,8.1,-,N/A,,Mostly Cloudy,250,2012-10-18 10:00:00